createdAt,value
2016-08-04T00:00:43.513Z,19.51
2016-08-04T00:01:43.505Z,19.47
2016-08-04T00:02:43.510Z,19.51
2016-08-04T00:03:43.508Z,19.43
2016-08-04T00:04:43.513Z,19.39
2016-08-04T00:05:43.503Z,19.43
2016-08-04T00:06:43.505Z,19.39
2016-08-04T00:07:43.504Z,19.39
2016-08-04T00:08:43.502Z,19.26
2016-08-04T00:09:43.504Z,19.29
2016-08-04T00:10:45.299Z,19.19
2016-08-04T00:11:43.650Z,19.31
2016-08-04T00:12:43.502Z,19.18
2016-08-04T00:13:43.497Z,19.16
2016-08-04T00:14:43.497Z,19.14
2016-08-04T00:15:43.897Z,19.19
2016-08-04T00:16:43.496Z,19.13
2016-08-04T00:17:43.502Z,19.11
2016-08-04T00:18:43.493Z,19.16
2016-08-04T00:19:44.551Z,19.16
2016-08-04T00:21:44.397Z,19.02
2016-08-04T00:22:44.786Z,19.07
2016-08-04T00:23:44.039Z,19.02
2016-08-04T00:24:43.693Z,19.1
2016-08-04T00:25:43.500Z,18.99
2016-08-04T00:26:43.489Z,19.06
2016-08-04T00:27:43.484Z,18.99
2016-08-04T00:28:43.486Z,19
2016-08-04T00:29:43.491Z,18.99
2016-08-04T00:30:43.487Z,19.06
2016-08-04T00:31:43.486Z,19
2016-08-04T00:32:43.480Z,18.99
2016-08-04T00:33:43.487Z,19.04
2016-08-04T00:34:43.478Z,18.95
2016-08-04T00:35:43.483Z,19.06
2016-08-04T00:36:43.491Z,19.04
2016-08-04T00:37:43.475Z,19.06
2016-08-04T00:38:43.481Z,19.02
2016-08-04T00:39:43.484Z,18.98
2016-08-04T00:40:43.489Z,19
2016-08-04T00:41:43.475Z,18.88
2016-08-04T00:42:43.476Z,18.92
2016-08-04T00:43:43.471Z,18.91
2016-08-04T00:44:43.479Z,18.91
2016-08-04T00:45:43.476Z,18.78
2016-08-04T00:46:43.472Z,18.81
2016-08-04T00:47:43.468Z,18.8
2016-08-04T00:48:44.891Z,18.76
2016-08-04T00:49:45.038Z,18.81
2016-08-04T00:50:43.755Z,18.8
2016-08-04T00:51:45.478Z,18.8
2016-08-04T00:52:43.468Z,18.76
2016-08-04T00:53:44.181Z,18.69
2016-08-04T00:54:43.471Z,18.75
2016-08-04T00:55:43.466Z,18.66
2016-08-04T00:56:43.461Z,18.66
2016-08-04T00:58:44.034Z,18.67
2016-08-04T00:59:44.657Z,18.57
2016-08-04T01:00:43.767Z,18.66
2016-08-04T01:01:44.543Z,18.57
2016-08-04T01:02:43.455Z,18.63
2016-08-04T01:03:43.751Z,18.55
2016-08-04T01:05:43.450Z,18.54
2016-08-04T01:06:43.454Z,18.47
2016-08-04T01:07:43.448Z,18.58
2016-08-04T01:08:43.449Z,18.52
2016-08-04T01:09:43.448Z,18.45
2016-08-04T01:10:43.446Z,18.48
2016-08-04T01:11:43.448Z,18.58
2016-08-04T01:12:43.447Z,18.39
2016-08-04T01:13:43.442Z,18.45
2016-08-04T01:14:43.439Z,18.42
2016-08-04T01:15:43.448Z,18.48
2016-08-04T01:16:43.441Z,18.44
2016-08-04T01:17:43.448Z,18.33
2016-08-04T01:18:43.435Z,18.33
2016-08-04T01:19:43.437Z,18.3
2016-08-04T01:20:43.435Z,18.41
2016-08-04T01:21:43.436Z,18.41
2016-08-04T01:22:43.429Z,18.36
2016-08-04T01:23:43.436Z,18.27
2016-08-04T01:24:43.432Z,18.39
2016-08-04T01:25:43.426Z,18.27
2016-08-04T01:26:44.130Z,18.37
2016-08-04T01:27:43.428Z,18.32
2016-08-04T01:28:43.430Z,18.39
2016-08-04T01:29:43.625Z,18.45
2016-08-04T01:30:44.182Z,18.42
2016-08-04T01:31:44.918Z,18.45
2016-08-04T01:32:43.418Z,18.44
2016-08-04T01:33:43.422Z,18.42
2016-08-04T01:34:43.414Z,18.55
2016-08-04T01:35:43.723Z,18.48
2016-08-04T01:36:43.517Z,18.47
2016-08-04T01:37:43.416Z,18.45
2016-08-04T01:38:44.266Z,18.47
2016-08-04T01:39:43.958Z,18.51
2016-08-04T01:40:43.518Z,18.54
2016-08-04T01:41:43.708Z,18.62
2016-08-04T01:42:43.710Z,18.58
2016-08-04T01:43:43.400Z,18.57
2016-08-04T01:44:43.403Z,18.67
2016-08-04T01:45:43.400Z,18.55
2016-08-04T01:46:43.403Z,18.67
2016-08-04T01:47:43.403Z,18.67
2016-08-04T01:48:43.405Z,18.66
2016-08-04T01:49:43.398Z,18.75
2016-08-04T01:50:43.403Z,18.69
2016-08-04T01:51:43.401Z,18.65
2016-08-04T01:52:43.396Z,18.72
2016-08-04T01:53:43.393Z,18.76
2016-08-04T01:54:43.399Z,18.78
2016-08-04T01:55:43.392Z,18.81
2016-08-04T01:56:43.396Z,18.67
2016-08-04T01:57:43.389Z,18.72
2016-08-04T01:58:43.442Z,18.78
2016-08-04T01:59:43.395Z,18.67
2016-08-04T02:00:43.385Z,18.72
2016-08-04T02:01:43.389Z,18.66
2016-08-04T02:02:43.398Z,18.7
2016-08-04T02:03:43.383Z,18.67
2016-08-04T02:04:43.386Z,18.66
2016-08-04T02:05:43.389Z,18.62
2016-08-04T02:07:44.028Z,18.62
2016-08-04T02:08:45.101Z,18.6
2016-08-04T02:09:44.394Z,18.57
2016-08-04T02:10:43.374Z,18.52
2016-08-04T02:11:43.368Z,18.55
2016-08-04T02:12:43.376Z,18.54
2016-08-04T02:13:43.374Z,18.5
2016-08-04T02:14:43.389Z,18.42
2016-08-04T02:15:44.783Z,18.47
2016-08-04T02:16:44.481Z,18.45
2016-08-04T02:17:44.431Z,18.44
2016-08-04T02:18:44.427Z,18.5
2016-08-04T02:19:44.052Z,18.45
2016-08-04T02:20:43.358Z,18.47
2016-08-04T02:21:43.363Z,18.55
2016-08-04T02:22:43.360Z,18.48
2016-08-04T02:23:43.356Z,18.48
2016-08-04T02:24:43.353Z,18.37
2016-08-04T02:25:43.364Z,18.37
2016-08-04T02:26:43.364Z,18.45
2016-08-04T02:27:43.349Z,18.47
2016-08-04T02:28:43.354Z,18.42
2016-08-04T02:29:43.359Z,18.44
2016-08-04T02:30:43.347Z,18.44
2016-08-04T02:31:43.359Z,18.45
2016-08-04T02:32:43.354Z,18.37
2016-08-04T02:33:43.343Z,18.35
2016-08-04T02:34:43.340Z,18.42
2016-08-04T02:35:43.345Z,18.37
2016-08-04T02:36:43.347Z,18.35
2016-08-04T02:37:43.339Z,18.29
2016-08-04T02:38:43.342Z,18.48
2016-08-04T02:39:43.337Z,18.36
2016-08-04T02:40:43.342Z,18.36
2016-08-04T02:41:43.340Z,18.35
2016-08-04T02:42:43.345Z,18.27
2016-08-04T02:43:43.333Z,18.37
2016-08-04T02:44:44.025Z,18.29
2016-08-04T02:45:43.337Z,18.25
2016-08-04T02:46:43.325Z,18.29
2016-08-04T02:47:44.286Z,18.29
2016-08-04T02:48:43.487Z,18.29
2016-08-04T02:49:43.532Z,18.21
2016-08-04T02:50:44.076Z,18.3
2016-08-04T02:51:43.327Z,18.25
2016-08-04T02:52:44.074Z,18.21
2016-08-04T02:53:43.319Z,18.29
2016-08-04T02:54:43.372Z,18.2
2016-08-04T02:55:43.317Z,18.17
2016-08-04T02:56:43.716Z,18.23
2016-08-04T02:57:44.067Z,18.14
2016-08-04T02:58:43.667Z,18.2
2016-08-04T02:59:43.318Z,18.17
2016-08-04T03:00:43.316Z,18.15
2016-08-04T03:01:43.562Z,18.14
2016-08-04T03:02:43.308Z,18.14
2016-08-04T03:03:43.307Z,18.1
2016-08-04T03:04:43.310Z,18.1
2016-08-04T03:05:43.306Z,18.07
2016-08-04T03:06:43.304Z,17.99
2016-08-04T03:07:43.298Z,17.97
2016-08-04T03:08:43.318Z,17.93
2016-08-04T03:09:43.305Z,18.03
2016-08-04T03:10:43.301Z,17.93
2016-08-04T03:11:43.295Z,17.89
2016-08-04T03:12:43.294Z,17.9
2016-08-04T03:13:43.298Z,17.79
2016-08-04T03:14:43.298Z,17.84
2016-08-04T03:15:43.292Z,17.82
2016-08-04T03:16:43.285Z,17.79
2016-08-04T03:17:43.282Z,17.84
2016-08-04T03:18:43.305Z,17.78
2016-08-04T03:19:43.286Z,17.82
2016-08-04T03:20:43.288Z,17.78
2016-08-04T03:21:43.284Z,17.62
2016-08-04T03:22:43.294Z,17.63
2016-08-04T03:23:43.283Z,17.68
2016-08-04T03:24:44.235Z,17.64
2016-08-04T03:25:44.452Z,17.64
2016-08-04T03:26:44.754Z,17.64
2016-08-04T03:27:43.272Z,17.56
2016-08-04T03:28:44.931Z,17.55
2016-08-04T03:29:43.526Z,17.56
2016-08-04T03:30:43.909Z,17.54
2016-08-04T03:31:43.552Z,17.54
2016-08-04T03:32:43.273Z,17.59
2016-08-04T03:33:44.257Z,17.49
2016-08-04T03:35:45.437Z,17.41
2016-08-04T03:36:43.259Z,17.46
2016-08-04T03:37:43.257Z,17.46
2016-08-04T03:38:43.254Z,17.46
2016-08-04T03:39:43.246Z,17.48
2016-08-04T03:40:43.252Z,17.51
2016-08-04T03:41:43.254Z,17.56
2016-08-04T03:42:43.245Z,17.51
2016-08-04T03:43:43.254Z,17.54
2016-08-04T03:44:43.243Z,17.56
2016-08-04T03:45:43.247Z,17.55
2016-08-04T03:46:43.239Z,17.55
2016-08-04T03:47:43.240Z,17.46
2016-08-04T03:48:43.237Z,17.59
2016-08-04T03:49:43.233Z,17.54
2016-08-04T03:50:43.232Z,17.59
2016-08-04T03:51:43.232Z,17.63
2016-08-04T03:52:43.229Z,17.55
2016-08-04T03:53:43.228Z,17.59
2016-08-04T03:54:43.225Z,17.55
2016-08-04T03:55:43.219Z,17.59
2016-08-04T03:56:43.217Z,17.58
2016-08-04T03:57:43.221Z,17.59
2016-08-04T03:58:43.322Z,17.66
2016-08-04T03:59:43.216Z,17.58
2016-08-04T04:00:43.217Z,17.62
2016-08-04T04:01:43.217Z,17.66
2016-08-04T04:02:43.211Z,17.64
2016-08-04T04:03:43.215Z,17.71
2016-08-04T04:04:43.210Z,17.66
2016-08-04T04:06:43.657Z,17.72
2016-08-04T04:07:43.909Z,17.74
2016-08-04T04:08:43.405Z,17.82
2016-08-04T04:09:43.196Z,17.82
2016-08-04T04:10:43.194Z,17.9
2016-08-04T04:11:43.203Z,18.17
2016-08-04T04:12:43.195Z,18.17
2016-08-04T04:13:43.191Z,18.27
2016-08-04T04:14:45.556Z,18.57
2016-08-04T04:15:43.540Z,18.72
2016-08-04T04:16:44.906Z,18.81
2016-08-04T04:17:44.638Z,18.95
2016-08-04T04:18:43.695Z,19.19
2016-08-04T04:19:43.186Z,19.37
2016-08-04T04:20:43.188Z,19.56
2016-08-04T04:21:43.184Z,19.84
2016-08-04T04:22:43.189Z,19.94
2016-08-04T04:23:43.193Z,20.05
2016-08-04T04:24:43.884Z,20.11
2016-08-04T04:25:43.187Z,20.18
2016-08-04T04:26:43.186Z,20.21
2016-08-04T04:27:43.184Z,20.32
2016-08-04T04:28:43.182Z,20.5
2016-08-04T04:29:43.184Z,20.73
2016-08-04T04:30:43.185Z,20.87
2016-08-04T04:31:43.188Z,21.21
2016-08-04T04:32:43.190Z,21.38
2016-08-04T04:33:43.198Z,21.46
2016-08-04T04:34:43.191Z,21.72
2016-08-04T04:35:43.196Z,21.99
2016-08-04T04:36:43.189Z,22.05
2016-08-04T04:37:43.190Z,22.21
2016-08-04T04:38:43.196Z,22.47
2016-08-04T04:39:43.198Z,22.77
2016-08-04T04:40:43.200Z,22.9
2016-08-04T04:41:43.205Z,23.25
2016-08-04T04:42:43.203Z,23.53
2016-08-04T04:44:45.854Z,24.18
2016-08-04T04:45:43.579Z,24.55
2016-08-04T04:46:44.482Z,24.78
2016-08-04T04:47:43.917Z,25
2016-08-04T04:48:43.229Z,25.28
2016-08-04T04:49:43.237Z,25.6
2016-08-04T04:51:43.241Z,26.18
2016-08-04T04:52:43.607Z,26.47
2016-08-04T04:53:43.334Z,26.81
2016-08-04T04:54:45.106Z,27.02
2016-08-04T04:55:43.261Z,27.14
2016-08-04T04:56:43.262Z,27.41
2016-08-04T04:57:43.280Z,27.63
2016-08-04T04:58:43.288Z,27.92
2016-08-04T04:59:43.395Z,28.11
2016-08-04T05:00:43.305Z,28.43
2016-08-04T05:01:43.302Z,28.56
2016-08-04T05:02:43.310Z,28.77
2016-08-04T05:03:43.326Z,28.83
2016-08-04T05:04:43.330Z,28.93
2016-08-04T05:05:43.341Z,28.8
2016-08-04T05:06:43.348Z,28.68
2016-08-04T05:07:43.354Z,28.61
2016-08-04T05:08:43.364Z,28.58
2016-08-04T05:09:43.366Z,28.55
2016-08-04T05:10:43.377Z,28.4
2016-08-04T05:11:43.386Z,28.37
2016-08-04T05:12:43.396Z,28.27
2016-08-04T05:13:43.405Z,28.21
2016-08-04T05:14:43.417Z,28
2016-08-04T05:15:43.420Z,27.92
2016-08-04T05:16:43.423Z,27.72
2016-08-04T05:17:43.423Z,27.6
2016-08-04T05:18:43.443Z,27.34
2016-08-04T05:19:43.454Z,27.03
2016-08-04T05:20:43.455Z,26.87
2016-08-04T05:21:43.457Z,26.63
2016-08-04T05:22:43.470Z,26.5
2016-08-04T05:23:44.769Z,26.3
2016-08-04T05:24:43.730Z,26.06
2016-08-04T05:25:44.085Z,25.85
2016-08-04T05:26:58.568Z,25.75
2016-08-04T05:27:43.493Z,25.64
2016-08-04T05:28:43.500Z,25.64
2016-08-04T05:29:43.808Z,25.54
2016-08-04T05:30:43.628Z,25.33
2016-08-04T05:31:43.527Z,25.2
2016-08-04T05:32:44.124Z,25.18
2016-08-04T05:33:43.878Z,25.13
2016-08-04T05:34:44.240Z,24.9
2016-08-04T05:35:44.693Z,24.85
2016-08-04T05:36:44.394Z,24.83
2016-08-04T05:37:44.253Z,24.73
2016-08-04T05:38:43.563Z,24.73
2016-08-04T05:39:43.567Z,24.65
2016-08-04T05:40:43.572Z,24.57
2016-08-04T05:41:43.580Z,24.5
2016-08-04T05:42:43.573Z,24.45
2016-08-04T05:43:43.578Z,24.46
2016-08-04T05:44:43.587Z,24.32
2016-08-04T05:45:43.587Z,24.3
2016-08-04T05:46:43.599Z,24.28
2016-08-04T05:47:43.594Z,24.21
2016-08-04T05:48:43.599Z,24.22
2016-08-04T05:49:43.613Z,24.12
2016-08-04T05:50:44.312Z,24.16
2016-08-04T05:51:43.628Z,24.08
2016-08-04T05:52:43.627Z,24.02
2016-08-04T05:53:43.628Z,23.97
2016-08-04T05:54:43.634Z,23.85
2016-08-04T05:55:43.632Z,23.98
2016-08-04T05:56:43.635Z,24
2016-08-04T05:57:43.640Z,24.05
2016-08-04T05:58:43.749Z,24.16
2016-08-04T05:59:43.648Z,24.18
2016-08-04T06:00:43.657Z,24.21
2016-08-04T06:01:45.173Z,24.32
2016-08-04T06:02:43.822Z,24.16
2016-08-04T06:03:45.976Z,24.18
2016-08-04T06:04:44.465Z,24.21
2016-08-04T06:05:44.747Z,24.28
2016-08-04T06:06:44.089Z,24.31
2016-08-04T06:07:43.682Z,24.34
2016-08-04T06:08:43.775Z,24.53
2016-08-04T06:09:43.750Z,24.55
2016-08-04T06:10:46.897Z,24.57
2016-08-04T06:11:43.949Z,24.53
2016-08-04T06:12:44.573Z,24.53
2016-08-04T06:13:43.712Z,24.47
2016-08-04T06:14:44.384Z,24.47
2016-08-04T06:15:44.188Z,24.42
2016-08-04T06:16:43.727Z,24.42
2016-08-04T06:17:43.735Z,24.53
2016-08-04T06:18:43.736Z,24.58
2016-08-04T06:19:43.740Z,24.84
2016-08-04T06:20:43.743Z,25.15
2016-08-04T06:21:43.742Z,25.45
2016-08-04T06:22:43.752Z,25.91
2016-08-04T06:23:43.759Z,26.21
2016-08-04T06:24:43.763Z,26.58
2016-08-04T06:25:43.769Z,26.81
2016-08-04T06:26:43.781Z,27
2016-08-04T06:27:43.788Z,27.28
2016-08-04T06:28:43.822Z,27.57
2016-08-04T06:29:43.807Z,27.75
2016-08-04T06:30:43.809Z,28.02
2016-08-04T06:31:43.814Z,28.21
2016-08-04T06:32:45.075Z,28.4
2016-08-04T06:33:43.832Z,28.7
2016-08-04T06:34:43.859Z,28.93
2016-08-04T06:35:43.850Z,29.09
2016-08-04T06:36:43.869Z,29.45
2016-08-04T06:37:43.872Z,29.71
2016-08-04T06:38:43.884Z,29.95
2016-08-04T06:39:43.887Z,30.08
2016-08-04T06:40:43.905Z,30.24
2016-08-04T06:41:43.914Z,30.49
2016-08-04T06:43:44.887Z,30.82
2016-08-04T06:44:59.115Z,31.1
2016-08-04T06:45:43.958Z,31.31
2016-08-04T06:46:43.985Z,31.51
2016-08-04T06:47:44.431Z,31.73
2016-08-04T06:48:43.993Z,32.04
2016-08-04T06:49:44.000Z,32.4
2016-08-04T06:50:44.019Z,32.65
2016-08-04T06:51:44.333Z,32.74
2016-08-04T06:52:44.039Z,32.89
2016-08-04T06:54:44.070Z,32.93
2016-08-04T06:55:44.080Z,32.99
2016-08-04T06:56:44.097Z,33.09
2016-08-04T06:57:44.099Z,33.12
2016-08-04T06:58:44.177Z,33.09
2016-08-04T06:59:44.133Z,33.23
2016-08-04T07:00:44.144Z,33.18
2016-08-04T07:01:44.167Z,33.31
2016-08-04T07:02:44.184Z,33.39
2016-08-04T07:03:44.186Z,33.59
2016-08-04T07:04:44.201Z,33.72
2016-08-04T07:05:44.214Z,33.81
2016-08-04T07:06:44.225Z,33.81
2016-08-04T07:07:44.238Z,33.76
2016-08-04T07:08:44.255Z,33.76
2016-08-04T07:09:44.262Z,33.6
2016-08-04T07:10:44.293Z,33.54
2016-08-04T07:11:44.297Z,33.45
2016-08-04T07:12:44.309Z,33.51
2016-08-04T07:13:44.326Z,33.49
2016-08-04T07:14:44.344Z,33.39
2016-08-04T07:15:44.342Z,33.28
2016-08-04T07:16:44.359Z,33.34
2016-08-04T07:17:44.396Z,33.18
2016-08-04T07:18:44.386Z,33.16
2016-08-04T07:20:44.487Z,33.34
2016-08-04T07:21:45.702Z,33.31
2016-08-04T07:22:45.201Z,33.39
2016-08-04T07:23:44.456Z,33.42
2016-08-04T07:24:44.484Z,33.71
2016-08-04T07:25:44.485Z,33.73
2016-08-04T07:26:44.494Z,33.81
2016-08-04T07:27:44.517Z,33.86
2016-08-04T07:28:46.043Z,34.1
2016-08-04T07:30:44.933Z,34.72
2016-08-04T07:31:44.962Z,35.02
2016-08-04T07:32:44.577Z,35.22
2016-08-04T07:33:45.187Z,35.37
2016-08-04T07:34:45.327Z,35.4
2016-08-04T07:35:44.706Z,35.53
2016-08-04T07:36:44.634Z,35.63
2016-08-04T07:37:44.666Z,35.87
2016-08-04T07:38:44.667Z,35.94
2016-08-04T07:39:44.692Z,35.84
2016-08-04T07:40:44.709Z,35.56
2016-08-04T07:41:44.714Z,35.52
2016-08-04T07:42:44.731Z,35.4
2016-08-04T07:43:44.748Z,35.33
2016-08-04T07:44:44.767Z,35.18
2016-08-04T07:45:44.791Z,35.11
2016-08-04T07:46:44.802Z,35.16
2016-08-04T07:47:44.816Z,35.37
2016-08-04T07:48:44.830Z,35.6
2016-08-04T07:49:44.850Z,35.71
2016-08-04T07:50:44.873Z,35.94
2016-08-04T07:51:44.878Z,36.15
2016-08-04T07:52:44.901Z,36.38
2016-08-04T07:53:44.917Z,36.5
2016-08-04T07:54:44.938Z,36.59
2016-08-04T07:55:44.945Z,36.57
2016-08-04T07:56:44.961Z,36.6
2016-08-04T07:57:44.986Z,36.71
2016-08-04T07:58:45.005Z,36.94
2016-08-04T07:59:45.017Z,37.07
2016-08-04T08:00:46.274Z,37.18
2016-08-04T08:01:45.910Z,37.13
2016-08-04T08:02:45.474Z,37.44
2016-08-04T08:03:45.139Z,37.46
2016-08-04T08:04:45.557Z,37.59
2016-08-04T08:05:45.128Z,37.59
2016-08-04T08:06:45.139Z,37.6
2016-08-04T08:07:45.156Z,37.78
2016-08-04T08:08:45.183Z,37.7
2016-08-04T08:09:47.203Z,37.55
2016-08-04T08:10:45.517Z,37.57
2016-08-04T08:12:45.510Z,37.59
2016-08-04T08:13:46.329Z,37.57
2016-08-04T08:14:45.288Z,37.57
2016-08-04T08:15:45.571Z,37.67
2016-08-04T08:16:45.325Z,37.74
2016-08-04T08:17:45.339Z,37.84
2016-08-04T08:18:45.362Z,37.76
2016-08-04T08:19:45.376Z,37.74
2016-08-04T08:20:45.391Z,37.51
2016-08-04T08:21:45.416Z,37.37
2016-08-04T08:22:45.432Z,37.09
2016-08-04T08:23:45.450Z,36.87
2016-08-04T08:24:45.470Z,36.78
2016-08-04T08:25:45.488Z,36.84
2016-08-04T08:26:45.497Z,36.9
2016-08-04T08:27:45.515Z,37.05
2016-08-04T08:28:45.539Z,37.06
2016-08-04T08:29:45.543Z,37.07
2016-08-04T08:30:45.564Z,37.03
2016-08-04T08:31:45.589Z,37.02
2016-08-04T08:32:45.601Z,36.81
2016-08-04T08:33:45.618Z,36.73
2016-08-04T08:34:45.626Z,36.66
2016-08-04T08:35:45.656Z,36.46
2016-08-04T08:36:45.664Z,36.23
2016-08-04T08:37:47.003Z,36.32
2016-08-04T08:39:46.112Z,36.46
2016-08-04T08:40:46.622Z,36.32
2016-08-04T08:41:45.871Z,36.38
2016-08-04T08:42:45.769Z,36.31
2016-08-04T08:43:45.775Z,36.19
2016-08-04T08:44:45.794Z,36.03
2016-08-04T08:45:45.813Z,35.9
2016-08-04T08:47:46.080Z,35.92
2016-08-04T08:48:47.306Z,35.97
2016-08-04T08:49:46.218Z,35.93
2016-08-04T08:50:45.936Z,35.62
2016-08-04T08:51:45.895Z,35.44
2016-08-04T08:52:46.433Z,35.07
2016-08-04T08:53:45.935Z,34.96
2016-08-04T08:54:45.942Z,34.72
2016-08-04T08:55:45.960Z,34.47
2016-08-04T08:56:45.975Z,34.3
2016-08-04T08:57:45.991Z,34
2016-08-04T08:58:46.113Z,33.66
2016-08-04T08:59:46.014Z,33.45
2016-08-04T09:00:46.026Z,33.32
2016-08-04T09:01:46.040Z,33.12
2016-08-04T09:02:46.052Z,32.94
2016-08-04T09:03:46.068Z,32.96
2016-08-04T09:04:46.084Z,32.85
2016-08-04T09:05:46.097Z,32.89
2016-08-04T09:06:46.101Z,32.97
2016-08-04T09:07:46.119Z,32.96
2016-08-04T09:08:46.124Z,33.04
2016-08-04T09:09:46.133Z,33.07
2016-08-04T09:10:46.145Z,33.14
2016-08-04T09:11:46.155Z,33.12
2016-08-04T09:12:46.165Z,33.21
2016-08-04T09:13:46.183Z,33.29
2016-08-04T09:14:46.214Z,33.31
2016-08-04T09:15:46.213Z,33.32
2016-08-04T09:16:46.213Z,33.15
2016-08-04T09:17:46.229Z,33.19
2016-08-04T09:19:46.649Z,33.12
2016-08-04T09:20:46.860Z,32.92
2016-08-04T09:21:47.532Z,32.85
2016-08-04T09:22:46.282Z,32.88
2016-08-04T09:23:46.993Z,32.87
2016-08-04T09:24:46.900Z,32.92
2016-08-04T09:25:46.317Z,32.92
2016-08-04T09:26:46.318Z,32.94
2016-08-04T09:28:47.454Z,33.01
2016-08-04T09:29:47.214Z,33.14
2016-08-04T09:31:47.129Z,33.34
2016-08-04T09:32:46.387Z,33.34
2016-08-04T09:33:46.403Z,33.37
2016-08-04T09:34:46.418Z,33.29
2016-08-04T09:35:46.427Z,33.35
2016-08-04T09:37:46.440Z,33.03
2016-08-04T09:38:46.454Z,32.94
2016-08-04T09:39:46.466Z,32.87
2016-08-04T09:40:46.468Z,32.78
2016-08-04T09:41:46.510Z,32.69
2016-08-04T09:42:46.505Z,32.59
2016-08-04T09:43:46.503Z,32.47
2016-08-04T09:44:47.224Z,32.47
2016-08-04T09:45:46.546Z,32.35
2016-08-04T09:46:46.539Z,32.15
2016-08-04T09:47:46.551Z,32
2016-08-04T09:48:46.561Z,31.76
2016-08-04T09:49:46.570Z,31.51
2016-08-04T09:50:46.588Z,31.43
2016-08-04T09:51:46.586Z,31.07
2016-08-04T09:52:46.598Z,30.91
2016-08-04T09:53:46.612Z,30.67
2016-08-04T09:54:46.620Z,30.51
2016-08-04T09:55:46.625Z,30.31
2016-08-04T09:56:48.155Z,30.11
2016-08-04T09:57:48.005Z,30.02
2016-08-04T09:58:47.480Z,29.83
2016-08-04T09:59:47.551Z,29.86
2016-08-04T10:00:47.414Z,29.8
2016-08-04T10:01:46.737Z,29.79
2016-08-04T10:02:46.690Z,29.87
2016-08-04T10:03:46.699Z,29.94
2016-08-04T10:04:46.703Z,29.98
2016-08-04T10:05:48.228Z,29.95
2016-08-04T10:06:46.861Z,30.1
2016-08-04T10:07:46.928Z,30.1
2016-08-04T10:08:48.260Z,29.92
2016-08-04T10:09:46.743Z,29.94
2016-08-04T10:10:47.627Z,29.89
2016-08-04T10:11:46.762Z,30.07
2016-08-04T10:12:46.777Z,30.07
2016-08-04T10:13:46.774Z,30.1
2016-08-04T10:14:46.782Z,30.19
2016-08-04T10:15:46.798Z,30.23
2016-08-04T10:16:46.804Z,30.23
2016-08-04T10:17:46.820Z,30.31
2016-08-04T10:18:46.820Z,30.32
2016-08-04T10:19:46.827Z,30.38
2016-08-04T10:20:47.539Z,30.39
2016-08-04T10:21:46.848Z,30.51
2016-08-04T10:22:46.855Z,30.27
2016-08-04T10:23:46.873Z,30.27
2016-08-04T10:24:46.877Z,30.19
2016-08-04T10:25:46.882Z,30.08
2016-08-04T10:26:46.888Z,30.08
2016-08-04T10:27:46.908Z,29.95
2016-08-04T10:28:46.910Z,30.01
2016-08-04T10:29:46.921Z,29.95
2016-08-04T10:30:46.919Z,29.83
2016-08-04T10:31:46.928Z,29.85
2016-08-04T10:32:46.936Z,29.68
2016-08-04T10:33:46.943Z,29.64
2016-08-04T10:34:46.961Z,29.6
2016-08-04T10:35:46.964Z,29.33
2016-08-04T10:36:48.923Z,29.23
2016-08-04T10:38:01.901Z,29.11
2016-08-04T10:38:46.987Z,28.95
2016-08-04T10:39:47.448Z,28.9
2016-08-04T10:40:47.279Z,28.77
2016-08-04T10:41:47.011Z,28.64
2016-08-04T10:42:47.024Z,28.44
2016-08-04T10:43:47.028Z,28.3
2016-08-04T10:44:47.031Z,28.09
2016-08-04T10:46:47.499Z,28.02
2016-08-04T10:47:47.658Z,27.96
2016-08-04T10:48:47.716Z,28.03
2016-08-04T10:49:48.075Z,28.11
2016-08-04T10:50:47.776Z,28.22
2016-08-04T10:51:47.083Z,28.36
2016-08-04T10:52:47.105Z,28.62
2016-08-04T10:53:47.099Z,28.8
2016-08-04T10:54:47.116Z,28.88
2016-08-04T10:55:47.113Z,29
2016-08-04T10:56:47.121Z,29.23
2016-08-04T10:57:47.130Z,29.36
2016-08-04T10:58:47.135Z,29.48
2016-08-04T10:59:47.151Z,29.67
2016-08-04T11:00:47.160Z,29.7
2016-08-04T11:01:47.159Z,29.73
2016-08-04T11:02:47.164Z,29.74
2016-08-04T11:03:47.177Z,29.55
2016-08-04T11:04:47.186Z,29.52
2016-08-04T11:05:47.191Z,29.49
2016-08-04T11:06:47.202Z,29.51
2016-08-04T11:07:47.217Z,29.46
2016-08-04T11:08:47.223Z,29.64
2016-08-04T11:09:47.228Z,29.74
2016-08-04T11:10:47.235Z,29.83
2016-08-04T11:11:47.243Z,29.92
2016-08-04T11:12:47.244Z,30.05
2016-08-04T11:13:47.257Z,30.07
2016-08-04T11:15:47.694Z,30.35
2016-08-04T11:16:48.236Z,30.47
2016-08-04T11:17:47.290Z,30.49
2016-08-04T11:18:47.858Z,30.37
2016-08-04T11:19:47.490Z,30.1
2016-08-04T11:20:47.307Z,30.01
2016-08-04T11:21:47.548Z,30.15
2016-08-04T11:22:47.334Z,30.38
2016-08-04T11:24:50.360Z,30.72
2016-08-04T11:25:47.667Z,30.88
2016-08-04T11:26:47.374Z,31.01
2016-08-04T11:27:48.116Z,31.04
2016-08-04T11:28:48.097Z,31.1
2016-08-04T11:29:47.742Z,31.06
2016-08-04T11:30:47.393Z,30.98
2016-08-04T11:31:47.408Z,30.83
2016-08-04T11:32:47.418Z,30.84
2016-08-04T11:33:47.426Z,30.61
2016-08-04T11:34:47.434Z,30.49
2016-08-04T11:35:47.439Z,30.45
2016-08-04T11:36:47.444Z,30.51
2016-08-04T11:37:47.455Z,30.47
2016-08-04T11:38:47.473Z,30.51
2016-08-04T11:39:47.511Z,30.49
2016-08-04T11:40:47.486Z,30.49
2016-08-04T11:41:47.488Z,30.53
2016-08-04T11:42:47.513Z,30.6
2016-08-04T11:43:47.513Z,30.69
2016-08-04T11:44:47.519Z,30.79
2016-08-04T11:45:47.527Z,30.89
2016-08-04T11:46:47.557Z,30.99
2016-08-04T11:47:47.547Z,31.02
2016-08-04T11:48:47.552Z,31.14
2016-08-04T11:49:47.571Z,31.25
2016-08-04T11:50:47.564Z,31.31
2016-08-04T11:51:47.585Z,31.39
2016-08-04T11:52:47.587Z,31.56
2016-08-04T11:53:47.608Z,31.5
2016-08-04T11:55:48.048Z,31.32
2016-08-04T11:56:48.574Z,31.16
2016-08-04T11:57:47.989Z,31.1
2016-08-04T11:58:48.196Z,31.09
2016-08-04T11:59:47.656Z,31.17
2016-08-04T12:00:47.662Z,31.25
2016-08-04T12:01:47.664Z,31.34
2016-08-04T12:02:47.677Z,31.36
2016-08-04T12:03:47.690Z,31.39
2016-08-04T12:04:48.551Z,31.43
2016-08-04T12:05:48.411Z,31.41
2016-08-04T12:06:48.071Z,31.35
2016-08-04T12:07:48.423Z,31.25
2016-08-04T12:09:02.650Z,30.98
2016-08-04T12:09:47.900Z,30.89
2016-08-04T12:10:47.760Z,30.83
2016-08-04T12:11:47.764Z,30.53
2016-08-04T12:12:47.766Z,30.45
2016-08-04T12:13:47.785Z,30.27
2016-08-04T12:14:47.787Z,30.16
2016-08-04T12:15:47.794Z,30.02
2016-08-04T12:16:47.811Z,30.02
2016-08-04T12:17:47.816Z,30
2016-08-04T12:18:47.820Z,29.92
2016-08-04T12:19:47.827Z,29.95
2016-08-04T12:20:47.836Z,29.8
2016-08-04T12:21:47.843Z,29.82
2016-08-04T12:22:47.865Z,29.82
2016-08-04T12:23:47.861Z,29.94
2016-08-04T12:24:47.866Z,29.89
2016-08-04T12:25:47.875Z,29.78
2016-08-04T12:26:47.892Z,29.8
2016-08-04T12:27:48.165Z,29.8
2016-08-04T12:28:47.903Z,29.79
2016-08-04T12:29:47.915Z,29.85
2016-08-04T12:30:47.917Z,29.86
2016-08-04T12:31:47.927Z,29.85
2016-08-04T12:32:48.895Z,29.78
2016-08-04T12:34:48.491Z,29.58
2016-08-04T12:35:48.366Z,29.45
2016-08-04T12:36:47.977Z,29.23
2016-08-04T12:37:48.177Z,29.19
2016-08-04T12:38:48.160Z,29.05
2016-08-04T12:39:47.991Z,28.86
2016-08-04T12:40:47.995Z,28.83
2016-08-04T12:41:48.912Z,28.68
2016-08-04T12:42:49.262Z,28.61
2016-08-04T12:43:49.602Z,28.54
2016-08-04T12:44:48.043Z,28.48
2016-08-04T12:45:48.031Z,28.39
2016-08-04T12:46:48.655Z,28.24
2016-08-04T12:47:48.055Z,28.15
2016-08-04T12:48:48.054Z,28.04
2016-08-04T12:49:48.060Z,27.87
2016-08-04T12:50:48.077Z,27.85
2016-08-04T12:51:48.080Z,27.77
2016-08-04T12:52:48.089Z,27.63
2016-08-04T12:53:48.101Z,27.49
2016-08-04T12:54:48.099Z,27.43
2016-08-04T12:55:48.105Z,27.36
2016-08-04T12:56:48.111Z,27.22
2016-08-04T12:57:48.119Z,27
2016-08-04T12:58:48.226Z,26.97
2016-08-04T12:59:48.132Z,26.81
2016-08-04T13:00:48.135Z,26.67
2016-08-04T13:01:48.142Z,26.4
2016-08-04T13:02:48.145Z,26.3
2016-08-04T13:03:48.148Z,26.07
2016-08-04T13:04:48.157Z,25.91
2016-08-04T13:05:48.861Z,25.72
2016-08-04T13:06:48.167Z,25.75
2016-08-04T13:07:48.174Z,25.55
2016-08-04T13:08:48.176Z,25.43
2016-08-04T13:09:48.181Z,25.28
2016-08-04T13:10:48.192Z,25.21
2016-08-04T13:11:48.219Z,25.2
2016-08-04T13:12:48.196Z,25.18
2016-08-04T13:15:48.219Z,25.13
2016-08-04T13:17:03.959Z,25.14
2016-08-04T13:17:48.219Z,25.23
2016-08-04T13:18:48.225Z,25.23
2016-08-04T13:19:48.242Z,25.24
2016-08-04T13:20:48.932Z,25.27
2016-08-04T13:21:48.255Z,25.35